createdAt,value
2022-11-05T00:00:36.432Z,7.78
2022-11-05T00:03:21.498Z,7.83
2022-11-05T00:06:08.230Z,7.81
2022-11-05T00:08:53.324Z,7.79
2022-11-05T00:11:39.674Z,7.75
2022-11-05T00:14:24.700Z,7.81
2022-11-05T00:16:51.063Z,7.70
2022-11-05T00:19:17.478Z,7.64
2022-11-05T00:22:02.146Z,7.61
2022-11-05T00:24:47.189Z,7.58
2022-11-05T00:27:13.546Z,7.60
2022-11-05T00:29:39.891Z,7.63
2022-11-05T00:32:06.395Z,7.61
2022-11-05T00:34:32.839Z,7.55
2022-11-05T00:36:59.203Z,7.52
2022-11-05T00:39:25.623Z,7.54
2022-11-05T00:42:11.958Z,7.47
2022-11-05T00:44:56.938Z,7.49
2022-11-05T00:47:41.724Z,7.48
2022-11-05T00:50:10.467Z,7.49
2022-11-05T00:52:55.637Z,7.45
2022-11-05T00:55:30.477Z,7.46
2022-11-05T00:57:57.801Z,7.43
2022-11-05T01:00:26.497Z,7.40
2022-11-05T01:02:53.025Z,7.36
2022-11-05T01:05:20.104Z,7.36
2022-11-05T01:07:48.681Z,7.32
2022-11-05T01:10:15.096Z,7.33
2022-11-05T01:12:41.497Z,7.26
2022-11-05T01:15:08.503Z,7.17
2022-11-05T01:17:34.891Z,7.14
2022-11-05T01:20:01.274Z,7.19
2022-11-05T01:22:27.640Z,7.16
2022-11-05T01:24:53.978Z,7.20
2022-11-05T01:27:20.363Z,7.17
2022-11-05T01:29:46.740Z,7.16
2022-11-05T01:32:13.153Z,7.05
2022-11-05T01:34:39.554Z,7.12
2022-11-05T01:37:05.941Z,7.03
2022-11-05T01:39:32.314Z,7.00
2022-11-05T01:41:58.875Z,6.97
2022-11-05T01:45:01.867Z,6.87
2022-11-05T01:47:31.148Z,6.95
2022-11-05T01:49:59.506Z,6.90
2022-11-05T01:52:26.982Z,6.92
2022-11-05T01:54:53.373Z,6.92
2022-11-05T01:57:19.912Z,6.09
2022-11-05T01:59:49.992Z,6.62
2022-11-05T02:02:16.414Z,6.73
2022-11-05T02:04:51.079Z,6.65
2022-11-05T02:07:17.810Z,6.66
2022-11-05T02:09:49.815Z,6.32
2022-11-05T02:12:16.347Z,6.26
2022-11-05T02:14:42.768Z,6.42
2022-11-05T02:17:21.145Z,6.63
2022-11-05T02:20:22.604Z,6.76
2022-11-05T02:23:03.830Z,6.76
2022-11-05T02:25:52.078Z,6.73
2022-11-05T02:28:55.845Z,6.69
2022-11-05T02:31:31.287Z,6.49
2022-11-05T02:34:09.263Z,6.54
2022-11-05T02:36:49.425Z,6.54
2022-11-05T02:39:42.682Z,6.36
2022-11-05T02:42:43.747Z,6.53
2022-11-05T02:45:11.212Z,6.43
2022-11-05T02:47:40.454Z,6.45
2022-11-05T02:50:30.779Z,6.44
2022-11-05T02:53:16.805Z,6.41
2022-11-05T02:55:49.176Z,6.41
2022-11-05T02:58:15.552Z,6.39
2022-11-05T03:00:52.011Z,6.47
2022-11-05T03:03:32.065Z,6.34
2022-11-05T03:06:07.888Z,6.46
2022-11-05T03:08:47.873Z,6.50
2022-11-05T03:11:16.130Z,6.30
2022-11-05T03:13:51.267Z,6.31
2022-11-05T03:16:34.401Z,6.19
2022-11-05T03:19:14.943Z,6.19
2022-11-05T03:21:56.307Z,6.24
2022-11-05T03:24:29.281Z,5.89
2022-11-05T03:26:58.593Z,6.23
2022-11-05T03:29:28.990Z,6.28
2022-11-05T03:31:56.852Z,6.14
2022-11-05T03:34:28.064Z,5.95
2022-11-05T03:36:56.234Z,6.07
2022-11-05T03:39:31.224Z,6.20
2022-11-05T03:41:58.356Z,5.82
2022-11-05T03:44:31.448Z,6.28
2022-11-05T03:47:03.810Z,6.11
2022-11-05T03:49:35.682Z,5.62
2022-11-05T03:52:18.471Z,5.68
2022-11-05T03:54:45.810Z,6.44
2022-11-05T03:57:29.494Z,6.29
2022-11-05T03:59:55.907Z,6.08
2022-11-05T04:02:24.080Z,6.44
2022-11-05T04:04:51.232Z,6.24
2022-11-05T04:07:36.177Z,6.23
2022-11-05T04:10:21.155Z,6.08
2022-11-05T04:13:06.325Z,6.17
2022-11-05T04:15:55.452Z,6.23
2022-11-05T04:18:21.959Z,6.27
2022-11-05T04:21:06.891Z,6.20
2022-11-05T04:23:52.032Z,6.27
2022-11-05T04:26:23.140Z,6.20
2022-11-05T04:29:11.615Z,6.38
2022-11-05T04:31:38.211Z,6.24
2022-11-05T04:34:04.806Z,6.42
2022-11-05T04:36:31.347Z,6.55
2022-11-05T04:38:57.702Z,6.32
2022-11-05T04:41:24.089Z,6.41
2022-11-05T04:43:50.497Z,6.45
2022-11-05T04:46:16.865Z,6.53
2022-11-05T04:48:43.228Z,6.58
2022-11-05T04:51:09.649Z,6.62
2022-11-05T04:53:36.010Z,6.21
2022-11-05T04:56:14.482Z,6.54
2022-11-05T04:58:41.790Z,6.61
2022-11-05T05:01:20.139Z,6.27
2022-11-05T05:03:48.156Z,6.51
2022-11-05T05:06:14.909Z,6.45
2022-11-05T05:08:41.447Z,6.65
2022-11-05T05:11:09.416Z,6.54
2022-11-05T05:13:35.831Z,6.60
2022-11-05T05:16:07.194Z,6.66
2022-11-05T05:18:34.021Z,6.67
2022-11-05T05:21:19.519Z,6.59
2022-11-05T05:23:47.920Z,6.57
2022-11-05T05:26:15.671Z,6.07
2022-11-05T05:28:42.082Z,6.41
2022-11-05T05:31:09.117Z,6.54
2022-11-05T05:33:35.621Z,6.61
2022-11-05T05:36:07.026Z,6.38
2022-11-05T05:38:36.480Z,6.51
2022-11-05T05:41:02.940Z,6.58
2022-11-05T05:43:31.051Z,6.56
2022-11-05T05:46:01.784Z,6.12
2022-11-05T05:48:28.156Z,6.39
2022-11-05T05:50:54.640Z,6.58
2022-11-05T05:53:21.000Z,6.40
2022-11-05T05:55:47.388Z,6.53
2022-11-05T05:58:13.788Z,6.31
2022-11-05T06:00:40.144Z,6.51
2022-11-05T06:03:06.724Z,6.49
2022-11-05T06:05:33.169Z,6.77
2022-11-05T06:07:59.582Z,6.69
2022-11-05T06:10:29.067Z,6.23
2022-11-05T06:12:55.609Z,6.91
2022-11-05T06:15:22.041Z,7.03
2022-11-05T06:17:48.430Z,6.93
2022-11-05T06:20:14.871Z,7.07
2022-11-05T06:22:41.312Z,7.20
2022-11-05T06:25:08.321Z,7.23
2022-11-05T06:27:36.713Z,7.23
2022-11-05T06:30:06.659Z,7.24
2022-11-05T06:32:40.086Z,7.31
2022-11-05T06:35:06.958Z,7.27
2022-11-05T06:37:36.076Z,6.72
2022-11-05T06:43:22.844Z,6.64
2022-11-05T06:45:59.753Z,6.68
2022-11-05T06:48:26.398Z,7.26
2022-11-05T06:50:53.818Z,7.38
2022-11-05T06:53:23.359Z,7.07
2022-11-05T06:55:49.874Z,6.66
2022-11-05T06:58:16.365Z,6.99
2022-11-05T07:00:45.471Z,6.64
2022-11-05T07:03:20.389Z,6.57
2022-11-05T07:05:49.051Z,6.87
2022-11-05T07:08:21.327Z,6.91
2022-11-05T07:10:48.379Z,7.35
2022-11-05T07:13:17.630Z,6.87
2022-11-05T07:16:07.491Z,6.58
2022-11-05T07:18:52.983Z,6.51
2022-11-05T07:21:24.520Z,6.76
2022-11-05T07:23:50.982Z,6.75
2022-11-05T07:26:17.401Z,6.94
2022-11-05T07:28:43.784Z,7.24
2022-11-05T07:31:10.183Z,7.20
2022-11-05T07:33:36.936Z,7.17
2022-11-05T07:36:03.627Z,6.89
2022-11-05T07:38:30.690Z,6.68
2022-11-05T07:40:59.491Z,6.88
2022-11-05T07:43:25.879Z,6.80
2022-11-05T07:45:52.312Z,6.75
2022-11-05T07:48:18.737Z,6.78
2022-11-05T07:50:45.160Z,7.28
2022-11-05T07:53:14.041Z,6.43
2022-11-05T07:55:41.593Z,7.32
2022-11-05T07:58:08.132Z,6.97
2022-11-05T08:00:47.470Z,6.80
2022-11-05T08:03:16.066Z,6.53
2022-11-05T08:05:46.668Z,6.67
2022-11-05T08:08:16.002Z,6.86
2022-11-05T08:10:42.931Z,6.97
2022-11-05T08:13:10.097Z,7.21
2022-11-05T08:15:52.675Z,7.05
2022-11-05T08:18:22.727Z,7.74
2022-11-05T08:20:54.095Z,7.96
2022-11-05T08:23:52.867Z,8.06
2022-11-05T08:26:22.825Z,7.39
2022-11-05T08:28:52.278Z,7.53
2022-11-05T08:31:21.135Z,7.56
2022-11-05T08:33:48.731Z,7.57
2022-11-05T08:36:17.323Z,8.08
2022-11-05T08:38:45.992Z,7.58
2022-11-05T08:41:13.496Z,8.32
2022-11-05T08:43:48.565Z,8.35
2022-11-05T08:46:15.001Z,7.49
2022-11-05T08:48:41.445Z,7.70
2022-11-05T08:51:12.680Z,8.58
2022-11-05T08:53:39.059Z,8.35
2022-11-05T08:56:05.696Z,8.85
2022-11-05T08:58:32.788Z,9.22
2022-11-05T09:01:04.754Z,9.50
2022-11-05T09:03:31.713Z,9.53
2022-11-05T09:05:58.058Z,9.94
2022-11-05T09:08:24.437Z,10.02
2022-11-05T09:10:53.784Z,10.40
2022-11-05T09:13:33.406Z,9.75
2022-11-05T09:16:01.876Z,9.86
2022-11-05T09:18:45.928Z,9.98
2022-11-05T09:21:12.338Z,10.14
2022-11-05T09:23:39.273Z,10.64
2022-11-05T09:26:05.796Z,11.30
2022-11-05T09:28:33.111Z,11.44
2022-11-05T09:31:00.487Z,11.28
2022-11-05T09:33:26.986Z,11.69
2022-11-05T09:35:53.649Z,11.51
2022-11-05T09:38:20.204Z,11.58
2022-11-05T09:41:07.223Z,11.81
2022-11-05T09:43:51.898Z,11.50
2022-11-05T09:46:19.358Z,11.57
2022-11-05T09:48:48.621Z,11.47
2022-11-05T09:51:22.403Z,11.59
2022-11-05T09:53:50.535Z,11.71
2022-11-05T09:56:36.831Z,11.70
2022-11-05T09:59:06.982Z,11.95
2022-11-05T10:01:36.342Z,12.38
2022-11-05T10:04:08.398Z,12.64
2022-11-05T10:06:35.710Z,12.25
2022-11-05T10:09:08.036Z,12.07
2022-11-05T10:11:41.122Z,12.04
2022-11-05T10:14:17.197Z,12.32
2022-11-05T10:16:44.046Z,12.14
2022-11-05T10:19:24.490Z,11.75
2022-11-05T10:22:10.968Z,12.15
2022-11-05T10:24:55.433Z,11.47
2022-11-05T10:27:32.128Z,11.71
2022-11-05T10:29:58.659Z,11.89
2022-11-05T10:32:35.637Z,11.78
2022-11-05T10:35:05.025Z,11.50
2022-11-05T10:37:31.918Z,11.84
2022-11-05T10:39:58.441Z,11.75
2022-11-05T10:42:36.912Z,11.89
2022-11-05T10:45:25.774Z,11.77
2022-11-05T10:48:02.060Z,11.65
2022-11-05T10:50:29.640Z,11.80
2022-11-05T10:53:32.754Z,11.61
2022-11-05T10:55:59.260Z,11.74
2022-11-05T10:58:28.948Z,11.74
2022-11-05T11:00:55.293Z,11.80
2022-11-05T11:03:35.350Z,11.68
2022-11-05T11:06:07.652Z,11.66
2022-11-05T11:08:35.666Z,11.68
2022-11-05T11:11:07.948Z,11.76
2022-11-05T11:14:03.763Z,11.75
2022-11-05T11:16:36.054Z,11.85
2022-11-05T11:19:03.206Z,11.69
2022-11-05T11:21:31.612Z,11.89
2022-11-05T11:24:00.774Z,11.90
2022-11-05T11:26:34.658Z,12.00
2022-11-05T11:29:16.923Z,11.96
2022-11-05T11:31:43.332Z,12.08
2022-11-05T11:34:22.262Z,12.04
2022-11-05T11:36:55.508Z,11.99
2022-11-05T11:39:24.405Z,11.97
2022-11-05T11:41:53.779Z,12.13
2022-11-05T11:44:26.909Z,12.01
2022-11-05T11:46:56.616Z,12.42
2022-11-05T11:49:46.629Z,12.25
2022-11-05T11:52:19.352Z,12.24
2022-11-05T11:54:45.763Z,12.34
2022-11-05T11:57:23.978Z,12.29
2022-11-05T12:00:08.328Z,12.02
2022-11-05T12:02:54.791Z,12.14
2022-11-05T12:05:34.413Z,12.49
2022-11-05T12:08:28.113Z,12.42
2022-11-05T12:11:04.636Z,12.51
2022-11-05T12:13:39.018Z,12.66
2022-11-05T12:16:25.337Z,12.54
2022-11-05T12:19:06.107Z,12.53
2022-11-05T12:21:52.961Z,12.31
2022-11-05T12:24:40.906Z,12.41
2022-11-05T12:27:19.274Z,12.72
2022-11-05T12:30:10.057Z,12.66
2022-11-05T12:33:06.775Z,12.93
2022-11-05T12:36:03.754Z,12.98
2022-11-05T12:38:30.002Z,12.98
2022-11-05T12:41:15.223Z,12.85
2022-11-05T12:43:56.825Z,12.74
2022-11-05T12:46:26.079Z,12.73
2022-11-05T12:49:04.656Z,12.53
2022-11-05T12:51:51.139Z,12.37
2022-11-05T12:54:25.858Z,12.63
2022-11-05T12:57:01.680Z,12.54
2022-11-05T12:59:37.495Z,12.47
2022-11-05T13:02:18.989Z,12.52
2022-11-05T13:05:17.554Z,12.52
2022-11-05T13:07:53.246Z,12.27
2022-11-05T13:10:31.672Z,12.46
2022-11-05T13:13:19.138Z,12.45
2022-11-05T13:15:55.181Z,12.50
2022-11-05T13:18:23.949Z,12.47
2022-11-05T13:20:52.251Z,12.65
2022-11-05T13:23:32.414Z,12.72
2022-11-05T13:26:13.417Z,12.56
2022-11-05T13:29:01.795Z,12.52
2022-11-05T13:31:34.823Z,12.73
2022-11-05T13:34:04.472Z,12.72
2022-11-05T13:36:52.442Z,12.67
2022-11-05T13:39:29.847Z,12.73
2022-11-05T13:42:15.188Z,12.85
2022-11-05T13:44:59.505Z,12.67
2022-11-05T13:47:53.817Z,12.78
2022-11-05T13:50:51.143Z,12.85
2022-11-05T13:53:42.668Z,12.79
2022-11-05T13:56:31.250Z,12.78
2022-11-05T13:59:04.855Z,12.78
2022-11-05T14:01:53.066Z,12.55
2022-11-05T14:04:31.090Z,12.56
2022-11-05T14:07:12.813Z,12.73
2022-11-05T14:09:40.319Z,12.73
2022-11-05T14:12:17.015Z,12.84
2022-11-05T14:14:44.896Z,12.79
2022-11-05T14:17:22.636Z,12.74
2022-11-05T14:20:02.731Z,12.65
2022-11-05T14:22:32.135Z,12.55
2022-11-05T14:24:59.660Z,12.49
2022-11-05T14:27:34.106Z,12.35
2022-11-05T14:30:00.521Z,12.00
2022-11-05T14:32:42.514Z,12.35
2022-11-05T14:35:14.899Z,12.32
2022-11-05T14:37:42.413Z,12.27
2022-11-05T14:40:38.331Z,11.93
2022-11-05T14:43:19.289Z,12.10
2022-11-05T14:46:03.429Z,11.89
2022-11-05T14:48:43.972Z,11.97
2022-11-05T14:51:38.211Z,11.89
2022-11-05T14:54:22.944Z,11.93
2022-11-05T14:56:57.952Z,11.93
2022-11-05T14:59:24.247Z,11.92
2022-11-05T15:01:50.612Z,11.91
2022-11-05T15:04:31.455Z,11.67
2022-11-05T15:07:04.174Z,11.84
2022-11-05T15:09:56.243Z,11.76
2022-11-05T15:12:42.531Z,11.66
2022-11-05T15:15:27.918Z,11.76
2022-11-05T15:18:16.854Z,11.78
2022-11-05T15:20:46.107Z,11.80
2022-11-05T15:23:15.849Z,11.53
2022-11-05T15:25:53.120Z,11.48
2022-11-05T15:28:36.525Z,11.63
2022-11-05T15:31:05.822Z,11.34
2022-11-05T15:33:32.748Z,11.53
2022-11-05T15:36:20.850Z,11.49
2022-11-05T15:39:08.232Z,11.57
2022-11-05T15:41:34.489Z,11.60
2022-11-05T15:44:02.619Z,11.63
2022-11-05T15:46:29.197Z,11.62
2022-11-05T15:48:58.972Z,11.42
2022-11-05T15:51:26.154Z,11.55
2022-11-05T15:56:45.310Z,11.33
2022-11-05T15:59:17.268Z,11.42
2022-11-05T16:01:52.314Z,11.50
2022-11-05T16:04:26.256Z,11.47
2022-11-05T16:06:54.893Z,11.37
2022-11-05T16:09:27.174Z,11.28
2022-11-05T16:12:19.677Z,11.31
2022-11-05T16:14:59.175Z,11.28
2022-11-05T16:17:27.827Z,11.33
2022-11-05T16:19:54.617Z,11.30
2022-11-05T16:22:21.083Z,11.27
2022-11-05T16:24:48.083Z,11.22
2022-11-05T16:27:23.497Z,10.99
2022-11-05T16:29:57.104Z,11.12
2022-11-05T16:32:31.362Z,11.24
2022-11-05T16:35:03.618Z,11.18
2022-11-05T16:37:36.726Z,11.15
2022-11-05T16:40:06.102Z,10.89
2022-11-05T16:42:32.361Z,11.14
2022-11-05T16:44:58.719Z,11.03
2022-11-05T16:47:26.298Z,11.07
2022-11-05T16:49:52.686Z,10.85
2022-11-05T16:52:19.067Z,11.11
2022-11-05T16:54:45.488Z,10.82
2022-11-05T16:57:23.639Z,11.01
2022-11-05T16:59:50.009Z,11.12
2022-11-05T17:02:16.552Z,10.83
2022-11-05T17:04:42.980Z,10.99
2022-11-05T17:07:09.349Z,10.72
2022-11-05T17:09:35.702Z,10.94
2022-11-05T17:12:02.397Z,10.98
2022-11-05T17:14:28.821Z,10.99
2022-11-05T17:16:55.192Z,10.69
2022-11-05T17:19:21.573Z,10.70
2022-11-05T17:21:48.426Z,10.96
2022-11-05T17:24:14.787Z,10.77
2022-11-05T17:26:41.143Z,11.07
2022-11-05T17:29:07.514Z,10.48
2022-11-05T17:31:33.887Z,10.86
2022-11-05T17:34:00.427Z,10.97
2022-11-05T17:36:27.125Z,11.00
2022-11-05T17:38:53.640Z,11.05
2022-11-05T17:41:21.987Z,10.95
2022-11-05T17:43:53.214Z,10.86
2022-11-05T17:46:19.831Z,10.78
2022-11-05T17:48:46.384Z,10.72
2022-11-05T17:51:18.419Z,10.90
2022-11-05T17:53:45.482Z,10.86
2022-11-05T17:56:22.149Z,10.87
2022-11-05T17:58:55.364Z,10.87
2022-11-05T18:01:30.370Z,10.80
2022-11-05T18:03:56.868Z,10.73
2022-11-05T18:06:23.418Z,10.80
2022-11-05T18:08:49.845Z,10.76
2022-11-05T18:11:16.365Z,10.81
2022-11-05T18:13:42.786Z,10.77
2022-11-05T18:16:09.480Z,10.84
2022-11-05T18:18:35.888Z,10.68
2022-11-05T18:21:02.336Z,10.80
2022-11-05T18:23:28.720Z,10.43
2022-11-05T18:25:55.088Z,10.68
2022-11-05T18:28:21.470Z,10.56
2022-11-05T18:30:47.889Z,10.48
2022-11-05T18:33:14.507Z,10.54
2022-11-05T18:35:44.756Z,10.50
2022-11-05T18:38:11.542Z,10.65
2022-11-05T18:40:38.090Z,10.59
2022-11-05T18:43:04.486Z,10.30
2022-11-05T18:45:31.891Z,10.45
2022-11-05T18:48:00.242Z,10.65
2022-11-05T18:50:27.572Z,10.55
2022-11-05T18:52:54.038Z,10.28
2022-11-05T18:55:20.724Z,10.51
2022-11-05T18:57:47.209Z,10.60
2022-11-05T19:00:14.227Z,10.67
2022-11-05T19:02:40.695Z,10.45
2022-11-05T19:05:28.060Z,10.57
2022-11-05T19:07:54.113Z,10.53
2022-11-05T19:10:20.484Z,10.46
2022-11-05T19:12:46.863Z,10.42
2022-11-05T19:15:13.251Z,10.24
2022-11-05T19:17:39.617Z,10.55
2022-11-05T19:20:06.843Z,10.37
2022-11-05T19:22:33.272Z,10.56
2022-11-05T19:24:59.648Z,10.20
2022-11-05T19:27:26.007Z,10.29
2022-11-05T19:29:52.428Z,10.48
2022-11-05T19:32:18.854Z,10.40
2022-11-05T19:34:45.225Z,10.42
2022-11-05T19:37:12.271Z,10.28
2022-11-05T19:39:40.125Z,10.26
2022-11-05T19:42:06.883Z,10.51
2022-11-05T19:44:33.304Z,10.42
2022-11-05T19:46:59.733Z,10.35
2022-11-05T19:49:28.125Z,10.38
2022-11-05T19:51:54.537Z,10.39
2022-11-05T19:54:20.901Z,10.46
2022-11-05T19:56:49.680Z,10.45
2022-11-05T19:59:16.045Z,10.41
2022-11-05T20:01:42.807Z,10.60
2022-11-05T20:04:09.695Z,10.44
2022-11-05T20:06:38.737Z,10.56
2022-11-05T20:09:20.945Z,10.55
2022-11-05T20:11:49.242Z,10.53
2022-11-05T20:14:15.645Z,10.61
2022-11-05T20:16:42.724Z,10.62
2022-11-05T20:19:11.691Z,10.62
2022-11-05T20:21:38.064Z,10.48
2022-11-05T20:24:04.592Z,10.55
2022-11-05T20:26:31.634Z,10.52
2022-11-05T20:28:58.255Z,10.54
2022-11-05T20:31:25.195Z,10.64
2022-11-05T20:33:52.047Z,10.57
2022-11-05T20:36:21.989Z,10.52
2022-11-05T20:38:52.528Z,10.35
2022-11-05T20:41:19.143Z,10.43
2022-11-05T20:43:46.702Z,10.46
2022-11-05T20:46:15.496Z,10.35
2022-11-05T20:48:42.813Z,10.12
2022-11-05T20:51:12.223Z,10.35
2022-11-05T20:53:39.030Z,10.42
2022-11-05T20:56:09.984Z,10.30
2022-11-05T20:58:37.590Z,10.40
2022-11-05T21:01:05.129Z,10.38
2022-11-05T21:03:31.594Z,10.30
2022-11-05T21:06:00.761Z,10.31
2022-11-05T21:08:27.903Z,10.14
2022-11-05T21:10:55.294Z,10.28
2022-11-05T21:13:22.388Z,10.42
2022-11-05T21:15:50.888Z,10.33
2022-11-05T21:18:18.461Z,10.32
2022-11-05T21:20:45.899Z,10.27
2022-11-05T21:23:13.010Z,10.26
2022-11-05T21:25:40.556Z,10.27
2022-11-05T21:28:07.950Z,10.30
2022-11-05T21:30:36.508Z,10.19
2022-11-05T21:33:05.101Z,10.23
2022-11-05T21:35:31.735Z,10.25
2022-11-05T21:37:58.230Z,10.28
2022-11-05T21:40:24.615Z,10.19
2022-11-05T21:42:51.002Z,10.28
2022-11-05T21:45:17.497Z,10.38
2022-11-05T21:47:43.946Z,10.30
2022-11-05T21:50:10.414Z,10.30
2022-11-05T21:52:55.427Z,10.28
2022-11-05T21:55:40.492Z,10.25
2022-11-05T21:58:32.705Z,10.29
2022-11-05T22:01:00.311Z,10.17
2022-11-05T22:03:26.915Z,10.10
2022-11-05T22:05:53.691Z,10.22
2022-11-05T22:08:20.046Z,10.01
2022-11-05T22:10:46.428Z,10.26
2022-11-05T22:13:12.810Z,10.19
2022-11-05T22:15:39.217Z,10.18
2022-11-05T22:18:05.625Z,9.97
2022-11-05T22:20:31.991Z,10.18
2022-11-05T22:22:58.368Z,10.23
2022-11-05T22:25:24.738Z,10.21
2022-11-05T22:27:51.111Z,10.02
2022-11-05T22:30:17.498Z,10.14
2022-11-05T22:32:44.026Z,10.18
2022-11-05T22:35:10.477Z,10.07
2022-11-05T22:37:36.867Z,10.27
2022-11-05T22:40:03.667Z,10.14
2022-11-05T22:42:30.100Z,10.26
2022-11-05T22:44:58.100Z,10.08
2022-11-05T22:47:24.459Z,10.29
2022-11-05T22:49:51.029Z,10.05
2022-11-05T22:52:17.840Z,10.12
2022-11-05T22:54:44.198Z,9.95
2022-11-05T22:57:10.590Z,9.98
2022-11-05T22:59:37.022Z,9.88
2022-11-05T23:02:09.177Z,10.05
2022-11-05T23:04:36.392Z,10.05
2022-11-05T23:07:27.077Z,10.10
2022-11-05T23:10:12.719Z,10.05
2022-11-05T23:12:39.076Z,10.08
2022-11-05T23:15:07.479Z,10.07
2022-11-05T23:17:52.545Z,10.09
2022-11-05T23:20:41.605Z,10.12
2022-11-05T23:23:30.684Z,10.13
2022-11-05T23:25:58.644Z,10.16
2022-11-05T23:28:25.258Z,10.18
2022-11-05T23:31:10.301Z,10.08
2022-11-05T23:33:37.157Z,10.17
2022-11-05T23:36:22.329Z,10.16
2022-11-05T23:38:48.703Z,10.18
2022-11-05T23:41:33.701Z,10.17
2022-11-05T23:44:18.649Z,10.19
2022-11-05T23:47:03.694Z,10.18
2022-11-05T23:49:30.086Z,10.12
2022-11-05T23:51:56.495Z,10.27
2022-11-05T23:54:22.940Z,10.33
2022-11-05T23:56:49.302Z,10.05
2022-11-05T23:59:15.662Z,10.25
